West Lebanon, Indiana
Current Conditions -  °F | °C
As of 2:35 PM on Tuesday 21 Oct 2014 (Local Time) from KDNV Reporting Station
Overcast Overcast  
Wind Chill: 55°   Ceiling: 4800
Heat Index: 55°   Visibility: 10mi
Dew Point: 39°   Wind: 10mph
Humidity: 55%   Direction: 10°N
Pressure: 30.1"   Gusts: NA
Location:  40.27°N, 87.39°W
Report Text: KDNV 211835Z AUTO 01009KT 10SM SCT040 OVC048 13/04 A3010 RMK AO2 T01300041
Loading
Personal Weather Stations






























Interactive Weather Map New forecast layout! Learn more

10-Day Weather Forecast

Advertisements
Track Severe Weather on mobile